createdAt,value
2017-05-19T00:01:07.174Z,14.38
2017-05-19T00:03:40.640Z,14.74
2017-05-19T00:06:14.768Z,14.00
2017-05-19T00:08:49.594Z,16.90
2017-05-19T00:11:24.527Z,16.58
2017-05-19T00:14:01.852Z,18.10
2017-05-19T00:16:33.942Z,17.22
2017-05-19T00:19:07.084Z,19.40
2017-05-19T00:21:42.261Z,22.52
2017-05-19T00:24:18.473Z,22.84
2017-05-19T00:26:50.899Z,21.80
2017-05-19T00:29:24.194Z,19.68
2017-05-19T00:31:59.533Z,22.64
2017-05-19T00:34:31.708Z,25.54
2017-05-19T00:37:07.765Z,24.42
2017-05-19T00:39:43.929Z,27.22
2017-05-19T00:42:18.561Z,30.82
2017-05-19T00:44:52.967Z,29.56
2017-05-19T00:47:26.485Z,29.36
2017-05-19T00:49:58.817Z,27.28
2017-05-19T00:52:33.926Z,29.14
2017-05-19T00:55:10.347Z,29.58
2017-05-19T00:57:42.207Z,28.56
2017-05-19T01:00:14.095Z,28.82
2017-05-19T01:02:54.425Z,26.34
2017-05-19T01:05:27.007Z,27.64
2017-05-19T01:07:59.681Z,26.66
2017-05-19T01:10:36.165Z,26.20
2017-05-19T01:13:08.860Z,25.22
2017-05-19T01:15:44.456Z,27.06
2017-05-19T01:18:16.522Z,25.46
2017-05-19T01:20:55.510Z,26.10
2017-05-19T01:23:28.517Z,28.94
2017-05-19T01:26:04.154Z,26.82
2017-05-19T01:28:38.769Z,27.38
2017-05-19T01:31:13.209Z,27.72
2017-05-19T01:33:48.089Z,25.62
2017-05-19T01:36:19.246Z,26.16
2017-05-19T01:38:55.459Z,29.50
2017-05-19T01:41:26.770Z,26.68
2017-05-19T01:44:02.665Z,27.98
2017-05-19T01:46:35.989Z,28.38
2017-05-19T01:49:07.925Z,25.12
2017-05-19T01:51:40.316Z,26.52
2017-05-19T02:14:48.387Z,20.82
2017-05-19T02:17:23.095Z,21.32
2017-05-19T02:19:56.590Z,19.06
2017-05-19T02:22:29.608Z,17.58
2017-05-19T02:25:06.189Z,17.28
2017-05-19T02:27:42.027Z,14.54
2017-05-19T02:30:13.867Z,14.94
2017-05-19T02:32:47.035Z,13.66
2017-05-19T02:35:23.704Z,10.92
2017-05-19T02:37:56.099Z,10.14
2017-05-19T02:40:27.598Z,10.60
2017-05-19T02:42:58.195Z,9.80
2017-05-19T02:45:31.394Z,12.10
2017-05-19T02:48:02.293Z,11.96
2017-05-19T02:50:38.133Z,9.72
2017-05-19T02:53:11.326Z,11.02
2017-05-19T02:55:43.555Z,9.94
2017-05-19T02:58:17.464Z,11.98
2017-05-19T03:00:49.162Z,11.32
2017-05-19T03:03:24.291Z,11.32
2017-05-19T03:05:56.650Z,10.92
2017-05-19T03:08:29.439Z,9.36
2017-05-19T03:11:02.868Z,8.98
2017-05-19T03:13:39.241Z,7.36
2017-05-19T03:16:16.732Z,6.86
2017-05-19T03:18:48.781Z,6.28
2017-05-19T03:21:21.417Z,5.78
2017-05-19T03:23:55.773Z,5.88
2017-05-19T03:26:31.011Z,4.82
2017-05-19T03:29:07.196Z,5.12
2017-05-19T03:31:39.904Z,6.12
2017-05-19T03:34:09.523Z,5.60
2017-05-19T03:36:42.999Z,5.76
2017-05-19T03:39:18.879Z,6.20
2017-05-19T03:41:53.806Z,6.02
2017-05-19T03:44:30.238Z,6.04
2017-05-19T03:47:05.116Z,5.84
2017-05-19T03:49:39.712Z,5.56
2017-05-19T03:52:10.653Z,5.88
2017-05-19T03:54:45.111Z,5.48
2017-05-19T03:57:22.050Z,5.86
2017-05-19T03:59:56.464Z,6.12
2017-05-19T04:02:32.574Z,6.10
2017-05-19T04:05:05.065Z,6.68
2017-05-19T04:07:37.351Z,5.66
2017-05-19T04:10:10.784Z,6.78
2017-05-19T04:12:46.377Z,6.22
2017-05-19T04:15:20.763Z,6.70
2017-05-19T04:17:54.338Z,7.10
2017-05-19T04:20:27.329Z,6.94
2017-05-19T04:22:58.438Z,6.42
2017-05-19T04:25:31.617Z,6.46
2017-05-19T04:28:05.172Z,8.10
2017-05-19T04:30:45.740Z,6.84
2017-05-19T04:33:19.963Z,7.58
2017-05-19T04:35:50.875Z,8.58
2017-05-19T04:38:22.639Z,7.46
2017-05-19T04:40:57.340Z,8.32
2017-05-19T04:43:33.678Z,7.28
2017-05-19T04:46:06.975Z,6.36
2017-05-19T04:48:43.005Z,6.46
2017-05-19T04:51:18.670Z,7.22
2017-05-19T04:53:52.597Z,6.78
2017-05-19T04:56:26.932Z,6.24
2017-05-19T04:59:00.060Z,5.18
2017-05-19T05:01:40.254Z,6.56
2017-05-19T05:04:18.136Z,6.06
2017-05-19T05:06:51.425Z,5.78
2017-05-19T05:09:27.140Z,5.84
2017-05-19T05:12:01.371Z,5.24
2017-05-19T05:14:46.030Z,5.66
2017-05-19T05:17:23.457Z,5.54
2017-05-19T05:19:57.685Z,5.26
2017-05-19T05:22:37.617Z,4.68
2017-05-19T05:25:09.264Z,4.60
2017-05-19T05:27:41.245Z,3.76
2017-05-19T05:30:16.857Z,3.98
2017-05-19T05:32:53.940Z,4.22
2017-05-19T05:35:31.257Z,4.38
2017-05-19T05:38:07.911Z,4.32
2017-05-19T05:40:39.243Z,3.98
2017-05-19T05:43:08.321Z,4.66
2017-05-19T05:45:43.585Z,4.22
2017-05-19T05:48:16.205Z,4.30
2017-05-19T05:50:53.119Z,4.38
2017-05-19T05:53:26.028Z,4.28
2017-05-19T05:55:57.785Z,4.50
2017-05-19T05:58:31.850Z,4.36
2017-05-19T06:01:05.102Z,3.72
2017-05-19T06:03:40.652Z,4.70
2017-05-19T06:06:12.919Z,4.12
2017-05-19T06:08:45.586Z,4.82
2017-05-19T06:11:19.088Z,4.98
2017-05-19T06:13:51.380Z,4.40
2017-05-19T06:16:21.347Z,5.26
2017-05-19T06:18:54.077Z,4.20
2017-05-19T06:21:27.360Z,4.60
2017-05-19T06:24:00.516Z,5.04
2017-05-19T06:26:35.141Z,5.08
2017-05-19T06:29:08.927Z,5.06
2017-05-19T06:31:44.119Z,4.84
2017-05-19T06:34:15.465Z,5.56
2017-05-19T06:36:48.353Z,4.90
2017-05-19T06:39:27.048Z,4.44
2017-05-19T06:42:02.141Z,4.84
2017-05-19T06:44:36.725Z,3.98
2017-05-19T06:47:11.625Z,4.60
2017-05-19T06:49:53.902Z,4.70
2017-05-19T06:52:29.316Z,4.10
2017-05-19T06:55:03.726Z,3.96
2017-05-19T06:57:38.997Z,4.48
2017-05-19T07:00:10.911Z,3.82
2017-05-19T07:02:42.465Z,4.26
2017-05-19T07:05:18.295Z,4.30
2017-05-19T07:07:51.910Z,3.98
2017-05-19T07:10:29.211Z,4.28
2017-05-19T07:13:02.706Z,4.46
2017-05-19T07:15:38.817Z,4.48
2017-05-19T07:18:10.640Z,4.02
2017-05-19T07:20:43.386Z,4.48
2017-05-19T07:23:14.876Z,4.70
2017-05-19T07:25:48.974Z,4.40
2017-05-19T07:28:22.644Z,3.92
2017-05-19T07:30:58.300Z,5.22
2017-05-19T07:33:30.748Z,5.80
2017-05-19T07:36:02.366Z,5.96
2017-05-19T07:38:38.225Z,6.24
2017-05-19T07:41:12.097Z,7.08
2017-05-19T07:43:45.027Z,8.16
2017-05-19T07:46:16.596Z,6.72
2017-05-19T07:48:49.934Z,6.60
2017-05-19T07:51:22.320Z,6.60
2017-05-19T07:53:55.582Z,6.96
2017-05-19T07:56:30.004Z,6.94
2017-05-19T07:59:02.228Z,7.60
2017-05-19T08:01:35.855Z,7.56
2017-05-19T08:04:09.361Z,7.10
2017-05-19T08:06:42.553Z,8.50
2017-05-19T08:09:18.425Z,8.38
2017-05-19T08:11:54.202Z,8.74
2017-05-19T08:14:28.153Z,9.22
2017-05-19T08:17:01.363Z,9.94
2017-05-19T08:19:32.672Z,8.60
2017-05-19T08:22:06.727Z,10.04
2017-05-19T08:24:41.525Z,9.74
2017-05-19T08:27:15.161Z,10.26
2017-05-19T08:29:47.806Z,10.78
2017-05-19T08:32:20.555Z,9.90
2017-05-19T08:34:53.157Z,10.66
2017-05-19T08:37:25.875Z,11.26
2017-05-19T08:39:58.232Z,10.86
2017-05-19T08:42:30.694Z,11.64
2017-05-19T08:45:07.257Z,11.66
2017-05-19T08:47:39.783Z,11.38
2017-05-19T08:50:13.512Z,10.92
2017-05-19T08:52:46.692Z,11.44
2017-05-19T08:55:18.501Z,10.38
2017-05-19T08:57:53.030Z,9.88
2017-05-19T09:00:25.244Z,9.14
2017-05-19T09:02:58.385Z,7.94
2017-05-19T09:05:33.514Z,9.18
2017-05-19T09:08:06.279Z,7.04
2017-05-19T09:10:40.965Z,7.20
2017-05-19T09:13:14.032Z,7.50
2017-05-19T09:15:48.066Z,6.80
2017-05-19T09:18:19.688Z,6.58
2017-05-19T09:20:54.324Z,7.48
2017-05-19T09:23:28.567Z,7.46
2017-05-19T09:26:02.363Z,6.60
2017-05-19T09:28:34.278Z,7.22
2017-05-19T09:31:05.550Z,6.92
2017-05-19T09:33:39.903Z,6.88
2017-05-19T09:36:11.714Z,6.62
2017-05-19T09:38:44.434Z,6.90
2017-05-19T09:41:18.456Z,7.66
2017-05-19T09:43:51.893Z,7.98
2017-05-19T09:46:24.812Z,7.30
2017-05-19T09:48:58.482Z,7.38
2017-05-19T09:51:33.613Z,6.66
2017-05-19T09:54:08.155Z,7.68
2017-05-19T09:56:42.801Z,6.44
2017-05-19T09:59:18.177Z,7.74
2017-05-19T10:01:53.436Z,7.38
2017-05-19T10:04:29.103Z,8.00
2017-05-19T10:07:01.781Z,7.76
2017-05-19T10:09:35.117Z,7.12
2017-05-19T10:12:09.862Z,7.90
2017-05-19T10:14:43.617Z,7.72
2017-05-19T10:17:15.374Z,7.62
2017-05-19T10:19:48.792Z,8.42
2017-05-19T10:22:22.571Z,7.70
2017-05-19T10:24:54.878Z,7.44
2017-05-19T10:27:31.168Z,7.76
2017-05-19T10:30:09.903Z,7.50
2017-05-19T10:32:42.099Z,7.28
2017-05-19T10:35:18.168Z,7.70
2017-05-19T10:37:52.678Z,7.28
2017-05-19T10:40:26.054Z,7.84
2017-05-19T10:42:59.893Z,8.16
2017-05-19T10:45:36.481Z,7.28
2017-05-19T10:48:08.976Z,6.74
2017-05-19T10:50:41.797Z,7.10
2017-05-19T10:53:13.989Z,7.40
2017-05-19T10:55:47.456Z,7.58
2017-05-19T10:58:22.768Z,8.88
2017-05-19T11:00:56.136Z,7.14
2017-05-19T11:03:30.837Z,8.64
2017-05-19T11:06:03.797Z,8.06
2017-05-19T11:08:41.082Z,7.88
2017-05-19T11:11:15.706Z,7.26
2017-05-19T11:13:48.765Z,8.32
2017-05-19T11:16:20.184Z,8.60
2017-05-19T11:18:52.874Z,7.44
2017-05-19T11:21:25.303Z,7.78
2017-05-19T11:23:58.090Z,8.14
2017-05-19T11:26:30.805Z,8.12
2017-05-19T11:29:06.048Z,7.50
2017-05-19T11:31:37.730Z,8.32
2017-05-19T11:34:17.753Z,8.46
2017-05-19T11:36:51.223Z,8.42
2017-05-19T11:39:23.433Z,7.98
2017-05-19T11:41:58.396Z,6.78
2017-05-19T11:44:31.523Z,7.96
2017-05-19T11:47:04.614Z,8.26
2017-05-19T11:49:40.321Z,8.30
2017-05-19T11:52:12.435Z,8.04
2017-05-19T11:54:45.073Z,8.50
2017-05-19T11:57:16.586Z,8.28
2017-05-19T11:59:50.171Z,7.12
2017-05-19T12:02:24.104Z,8.36
2017-05-19T12:04:55.486Z,7.94
2017-05-19T12:07:30.291Z,8.08
2017-05-19T12:10:13.884Z,8.48
2017-05-19T12:12:48.684Z,8.64
2017-05-19T12:15:21.803Z,8.82
2017-05-19T12:17:53.136Z,7.90
2017-05-19T12:20:22.205Z,7.18
2017-05-19T12:22:59.797Z,6.34
2017-05-19T12:25:32.230Z,5.90
2017-05-19T12:28:05.625Z,5.34
2017-05-19T12:30:40.573Z,6.68
2017-05-19T12:33:17.000Z,5.00
2017-05-19T12:35:51.536Z,4.18
2017-05-19T12:38:23.707Z,4.34
2017-05-19T12:40:57.457Z,4.14
2017-05-19T12:43:30.176Z,4.08
2017-05-19T12:45:59.228Z,4.48
2017-05-19T12:48:30.458Z,4.18
2017-05-19T12:51:00.476Z,4.52
2017-05-19T12:53:35.610Z,4.90
2017-05-19T12:56:08.124Z,5.66
2017-05-19T12:58:44.693Z,5.64
2017-05-19T13:01:14.124Z,6.36
2017-05-19T13:03:48.059Z,7.68
2017-05-19T13:06:24.151Z,7.00
2017-05-19T13:08:57.764Z,8.04
2017-05-19T13:11:31.800Z,7.90
2017-05-19T13:14:03.608Z,8.40
2017-05-19T13:16:38.077Z,7.62
2017-05-19T13:19:13.672Z,8.10
2017-05-19T13:21:47.663Z,9.38
2017-05-19T13:24:22.026Z,8.50
2017-05-19T13:26:56.647Z,8.48
2017-05-19T13:29:31.584Z,8.20
2017-05-19T13:32:03.782Z,9.66
2017-05-19T13:34:38.592Z,10.30
2017-05-19T13:37:12.338Z,10.46
2017-05-19T13:39:44.695Z,12.08
2017-05-19T13:42:15.700Z,14.08
2017-05-19T13:44:52.219Z,14.40
2017-05-19T13:47:26.664Z,15.60
2017-05-19T13:50:04.725Z,14.10
2017-05-19T13:52:37.283Z,14.62
2017-05-19T13:55:10.084Z,15.36
2017-05-19T13:57:42.914Z,15.14
2017-05-19T14:00:16.450Z,13.62
2017-05-19T14:02:50.926Z,14.24
2017-05-19T14:05:23.826Z,16.84
2017-05-19T14:07:55.705Z,17.60
2017-05-19T14:10:30.225Z,19.46
2017-05-19T14:13:00.582Z,18.54
2017-05-19T14:15:36.235Z,18.06
2017-05-19T14:18:12.165Z,17.20
2017-05-19T14:20:46.189Z,14.88
2017-05-19T14:23:18.835Z,15.66
2017-05-19T14:25:50.884Z,15.78
2017-05-19T14:28:26.427Z,16.36
2017-05-19T14:31:01.558Z,18.70
2017-05-19T14:33:34.405Z,17.08
2017-05-19T14:36:07.709Z,17.02
2017-05-19T14:38:40.685Z,15.98
2017-05-19T14:41:16.863Z,16.74
2017-05-19T14:43:49.870Z,16.30
2017-05-19T14:46:20.501Z,15.52
2017-05-19T14:48:55.219Z,16.08
2017-05-19T14:51:25.397Z,17.10
2017-05-19T14:53:56.909Z,15.42
2017-05-19T14:56:30.175Z,17.92
2017-05-19T14:59:03.509Z,15.46
2017-05-19T15:01:35.258Z,13.92
2017-05-19T15:04:11.453Z,15.58
2017-05-19T15:06:46.385Z,14.94
2017-05-19T15:09:22.554Z,14.18
2017-05-19T15:11:55.780Z,13.90
2017-05-19T15:14:29.468Z,14.34
2017-05-19T15:17:03.213Z,14.64
2017-05-19T15:19:35.585Z,15.12
2017-05-19T15:22:04.889Z,17.16
2017-05-19T15:24:36.973Z,14.04
2017-05-19T15:27:10.812Z,13.70
2017-05-19T15:29:45.589Z,12.82
2017-05-19T15:32:18.274Z,12.76
2017-05-19T15:34:50.660Z,13.38
2017-05-19T15:37:23.943Z,14.44
2017-05-19T15:39:55.192Z,14.30
2017-05-19T15:42:26.192Z,14.94
2017-05-19T15:44:59.927Z,12.74
2017-05-19T15:47:29.008Z,15.50
2017-05-19T15:49:58.118Z,14.82
2017-05-19T15:52:31.602Z,14.04
2017-05-19T15:55:01.669Z,14.12
2017-05-19T15:57:30.733Z,15.58
2017-05-19T15:59:59.816Z,17.34
2017-05-19T16:02:30.125Z,15.80
2017-05-19T16:04:59.189Z,17.32
2017-05-19T16:07:33.925Z,15.40
2017-05-19T16:10:07.497Z,16.04
2017-05-19T16:12:40.362Z,16.94
2017-05-19T16:15:09.462Z,17.36
2017-05-19T16:17:38.526Z,15.62
2017-05-19T16:20:07.619Z,18.22
2017-05-19T16:22:36.695Z,18.90
2017-05-19T16:25:06.520Z,16.76
2017-05-19T16:27:36.375Z,16.52
2017-05-19T16:30:05.434Z,15.10
2017-05-19T16:32:34.490Z,15.88
2017-05-19T16:35:04.388Z,15.56
2017-05-19T16:37:36.278Z,15.52
2017-05-19T16:40:09.417Z,16.68
2017-05-19T16:42:40.948Z,18.96
2017-05-19T16:45:10.257Z,17.42
2017-05-19T16:47:39.318Z,17.54
2017-05-19T16:50:08.683Z,19.48
2017-05-19T16:52:37.768Z,17.50
2017-05-19T16:55:08.578Z,17.46
2017-05-19T16:57:39.488Z,18.66
2017-05-19T17:00:09.566Z,20.62
2017-05-19T17:02:40.261Z,17.98
2017-05-19T17:05:09.312Z,17.96
2017-05-19T17:07:38.390Z,20.70
2017-05-19T17:10:07.558Z,19.04
2017-05-19T17:12:36.618Z,19.88
2017-05-19T17:15:12.443Z,19.90
2017-05-19T17:17:41.569Z,20.48
2017-05-19T17:20:15.316Z,19.70
2017-05-19T17:22:45.352Z,19.88
2017-05-19T17:25:14.639Z,21.74
2017-05-19T17:27:43.729Z,18.54
2017-05-19T17:30:12.792Z,21.72
2017-05-19T17:32:41.852Z,20.64
2017-05-19T17:35:12.014Z,20.20
2017-05-19T17:37:41.069Z,22.88
2017-05-19T17:40:10.758Z,18.40
2017-05-19T17:42:41.043Z,17.56
2017-05-19T17:45:10.113Z,19.92
2017-05-19T17:47:39.928Z,18.88
2017-05-19T17:50:09.947Z,17.84
2017-05-19T17:52:39.791Z,18.38
2017-05-19T17:55:09.270Z,18.30
2017-05-19T17:57:39.081Z,21.92
2017-05-19T18:00:09.972Z,19.76
2017-05-19T18:02:41.098Z,18.90
2017-05-19T18:05:11.709Z,18.76
2017-05-19T18:07:49.388Z,19.72
2017-05-19T18:10:26.109Z,20.82
2017-05-19T18:12:55.733Z,20.14
2017-05-19T18:15:30.039Z,19.60
2017-05-19T18:18:04.620Z,19.52
2017-05-19T18:20:41.753Z,18.30
2017-05-19T18:23:16.245Z,18.40
2017-05-19T18:25:48.290Z,19.66
2017-05-19T18:28:22.050Z,18.98
2017-05-19T18:30:58.706Z,18.34
2017-05-19T18:33:33.248Z,18.96
2017-05-19T18:36:06.918Z,19.54
2017-05-19T18:38:42.694Z,19.76
2017-05-19T18:41:15.051Z,18.20
2017-05-19T18:43:49.056Z,19.10
2017-05-19T18:46:22.001Z,20.58
2017-05-19T18:48:52.189Z,22.88
2017-05-19T18:51:25.405Z,32.04
2017-05-19T18:53:59.981Z,22.04
2017-05-19T18:56:32.106Z,20.38
2017-05-19T18:59:05.029Z,18.52
2017-05-19T19:01:35.731Z,18.88
2017-05-19T19:04:07.047Z,18.76
2017-05-19T19:06:39.520Z,18.50
2017-05-19T19:09:15.096Z,17.82
2017-05-19T19:11:51.561Z,18.00
2017-05-19T19:14:24.987Z,17.26
2017-05-19T19:17:00.728Z,16.54
2017-05-19T19:19:29.808Z,17.58
2017-05-19T19:22:05.868Z,17.24
2017-05-19T19:24:38.161Z,18.84
2017-05-19T19:27:12.440Z,17.68
2017-05-19T19:29:44.847Z,23.94
2017-05-19T19:32:21.013Z,19.26
2017-05-19T19:34:50.107Z,18.80
2017-05-19T19:37:19.195Z,18.02
2017-05-19T19:39:52.306Z,16.90
2017-05-19T19:42:23.168Z,18.20
2017-05-19T19:44:56.540Z,17.74
2017-05-19T19:47:28.660Z,18.44
2017-05-19T19:49:59.883Z,17.78
2017-05-19T19:52:33.554Z,17.00
2017-05-19T19:55:08.614Z,15.60
2017-05-19T19:57:40.253Z,17.88
2017-05-19T20:00:14.295Z,16.96
2017-05-19T20:02:46.467Z,18.84
2017-05-19T20:05:17.924Z,16.28
2017-05-19T20:07:51.195Z,17.10
2017-05-19T20:10:26.307Z,16.40
2017-05-19T20:12:58.424Z,16.66
2017-05-19T20:15:33.581Z,14.62
2017-05-19T20:18:06.306Z,17.08
2017-05-19T20:20:37.951Z,18.54
2017-05-19T20:23:13.486Z,22.30
2017-05-19T20:25:45.331Z,25.44
2017-05-19T20:28:19.880Z,21.50
2017-05-19T20:30:53.295Z,18.66
2017-05-19T20:33:25.669Z,20.10
2017-05-19T20:35:59.776Z,20.68
2017-05-19T20:38:32.108Z,20.96
2017-05-19T20:41:04.846Z,19.82
2017-05-19T20:43:37.103Z,19.22
2017-05-19T20:46:11.677Z,18.88
2017-05-19T20:48:44.330Z,19.56
2017-05-19T20:51:17.975Z,19.42
2017-05-19T20:53:51.778Z,19.76
2017-05-19T20:56:24.463Z,18.16
2017-05-19T20:59:00.273Z,20.82
2017-05-19T21:01:34.406Z,20.10
2017-05-19T21:04:06.733Z,21.20
2017-05-19T21:06:38.517Z,20.22
2017-05-19T21:09:11.376Z,21.40
2017-05-19T21:11:43.971Z,20.32
2017-05-19T21:14:17.617Z,22.06
2017-05-19T21:16:51.548Z,21.40
2017-05-19T21:19:25.798Z,21.62
2017-05-19T21:21:59.392Z,22.36
2017-05-19T21:24:33.114Z,21.88
2017-05-19T21:27:06.106Z,21.66
2017-05-19T21:29:39.194Z,20.42
2017-05-19T21:32:12.938Z,22.26
2017-05-19T21:34:49.352Z,21.90
2017-05-19T21:37:24.560Z,23.20
2017-05-19T21:39:59.800Z,21.70
2017-05-19T21:42:32.764Z,23.90
2017-05-19T21:45:08.046Z,24.72
2017-05-19T21:47:40.609Z,24.12
2017-05-19T21:50:15.534Z,25.84
2017-05-19T21:52:49.333Z,25.34
2017-05-19T21:55:24.088Z,25.32
2017-05-19T21:57:55.855Z,26.94
2017-05-19T22:00:28.634Z,25.84
2017-05-19T22:03:02.228Z,27.06
2017-05-19T22:05:38.476Z,24.52
2017-05-19T22:08:11.495Z,26.06
2017-05-19T22:10:46.999Z,26.70
2017-05-19T22:13:22.005Z,26.60
2017-05-19T22:15:58.325Z,25.86
2017-05-19T22:18:32.957Z,26.68
2017-05-19T22:21:04.836Z,26.30
2017-05-19T22:23:37.500Z,27.06
2017-05-19T22:26:14.482Z,25.50
2017-05-19T22:28:48.743Z,27.06
2017-05-19T22:31:22.153Z,24.24
2017-05-19T22:33:53.215Z,25.06
2017-05-19T22:36:26.104Z,25.72
2017-05-19T22:39:01.519Z,26.22
2017-05-19T22:41:33.220Z,26.40
2017-05-19T22:44:10.535Z,23.52
2017-05-19T22:46:41.643Z,23.62
2017-05-19T22:49:13.920Z,25.44
2017-05-19T22:51:48.321Z,24.42
2017-05-19T22:54:20.603Z,26.96
2017-05-19T22:56:57.293Z,26.38
2017-05-19T22:59:31.059Z,26.06
2017-05-19T23:02:07.137Z,24.16
2017-05-19T23:04:43.282Z,23.52
2017-05-19T23:07:15.908Z,23.90
2017-05-19T23:09:51.962Z,21.80
2017-05-19T23:12:24.447Z,22.70
2017-05-19T23:14:58.922Z,23.54
2017-05-19T23:17:33.584Z,21.68
2017-05-19T23:20:06.654Z,22.44
2017-05-19T23:22:41.877Z,21.38
2017-05-19T23:25:15.663Z,23.18
2017-05-19T23:27:48.578Z,23.42
2017-05-19T23:30:25.066Z,22.26
2017-05-19T23:32:58.495Z,22.00
2017-05-19T23:35:32.888Z,20.38
2017-05-19T23:38:06.175Z,18.62
2017-05-19T23:40:39.752Z,20.50
2017-05-19T23:43:14.046Z,20.84
2017-05-19T23:45:46.906Z,21.00
2017-05-19T23:48:18.420Z,23.26
2017-05-19T23:50:49.184Z,21.40
2017-05-19T23:53:22.065Z,21.82
2017-05-19T23:55:54.828Z,21.84
2017-05-19T23:58:28.628Z,20.70
